createdAt,value
2018-05-08T00:01:53.457Z,3.73
2018-05-08T00:04:20.940Z,3.87
2018-05-08T00:06:48.364Z,4.13
2018-05-08T00:09:15.801Z,3.90
2018-05-08T00:11:43.216Z,3.93
2018-05-08T00:14:10.645Z,4.53
2018-05-08T00:16:38.102Z,4.57
2018-05-08T00:19:05.560Z,4.07
2018-05-08T00:21:32.992Z,4.17
2018-05-08T00:24:00.418Z,5.00
2018-05-08T00:26:28.604Z,5.13
2018-05-08T00:28:56.040Z,3.70
2018-05-08T00:31:24.228Z,4.70
2018-05-08T00:33:51.670Z,4.10
2018-05-08T00:36:19.859Z,4.63
2018-05-08T00:38:47.357Z,3.53
2018-05-08T00:41:14.816Z,4.03
2018-05-08T00:43:42.252Z,4.20
2018-05-08T00:46:09.672Z,3.83
2018-05-08T00:48:37.992Z,3.80
2018-05-08T00:51:05.457Z,4.90
2018-05-08T00:53:32.908Z,5.30
2018-05-08T00:56:00.332Z,4.50
2018-05-08T00:58:27.820Z,3.93
2018-05-08T01:00:55.274Z,4.50
2018-05-08T01:03:22.705Z,4.30
2018-05-08T01:05:50.137Z,5.27
2018-05-08T01:08:18.348Z,4.23
2018-05-08T01:10:45.823Z,5.37
2018-05-08T01:13:13.255Z,4.07
2018-05-08T01:15:40.725Z,4.57
2018-05-08T01:18:08.185Z,4.53
2018-05-08T01:20:35.673Z,4.40
2018-05-08T01:23:03.096Z,5.17
2018-05-08T01:25:30.521Z,4.73
2018-05-08T01:27:57.948Z,3.83
2018-05-08T01:30:26.185Z,5.47
2018-05-08T01:32:53.621Z,5.63
2018-05-08T01:35:21.055Z,4.67
2018-05-08T01:37:48.553Z,4.60
2018-05-08T01:40:15.985Z,4.20
2018-05-08T01:42:43.408Z,4.27
2018-05-08T01:45:11.633Z,4.33
2018-05-08T01:47:39.088Z,5.00
2018-05-08T01:50:06.528Z,5.83
2018-05-08T01:52:33.997Z,4.83
2018-05-08T01:55:01.458Z,4.80
2018-05-08T01:57:28.880Z,5.00
2018-05-08T01:59:57.180Z,5.03
2018-05-08T02:02:24.645Z,5.20
2018-05-08T02:04:52.092Z,5.30
2018-05-08T02:07:19.521Z,4.80
2018-05-08T02:09:46.953Z,5.90
2018-05-08T02:12:15.169Z,5.07
2018-05-08T02:14:42.637Z,4.87
2018-05-08T02:17:10.064Z,5.27
2018-05-08T02:19:38.472Z,5.50
2018-05-08T02:22:05.904Z,4.40
2018-05-08T02:24:33.386Z,6.13
2018-05-08T02:27:00.809Z,4.83
2018-05-08T02:29:28.240Z,4.83
2018-05-08T02:31:56.427Z,4.70
2018-05-08T02:34:23.916Z,5.10
2018-05-08T02:36:51.376Z,4.77
2018-05-08T02:39:18.802Z,5.03
2018-05-08T02:41:46.225Z,5.47
2018-05-08T02:44:14.461Z,5.57
2018-05-08T02:46:41.920Z,5.33
2018-05-08T02:49:09.356Z,6.20
2018-05-08T02:51:36.821Z,5.60
2018-05-08T02:54:04.285Z,7.57
2018-05-08T02:56:31.740Z,6.10
2018-05-08T02:58:59.175Z,4.83
2018-05-08T03:01:26.593Z,5.80
2018-05-08T03:03:54.824Z,5.43
2018-05-08T03:06:22.243Z,5.50
2018-05-08T03:08:49.697Z,4.93
2018-05-08T03:11:17.124Z,6.20
2018-05-08T03:13:44.649Z,4.47
2018-05-08T03:16:12.100Z,5.30
2018-05-08T03:18:39.529Z,5.50
2018-05-08T03:21:07.026Z,4.33
2018-05-08T03:23:34.471Z,5.77
2018-05-08T03:26:01.930Z,5.70
2018-05-08T03:28:29.352Z,4.73
2018-05-08T03:30:56.836Z,4.87
2018-05-08T03:33:24.276Z,6.07
2018-05-08T03:35:51.749Z,5.90
2018-05-08T03:38:19.205Z,5.83
2018-05-08T03:40:46.660Z,4.43
2018-05-08T03:43:14.094Z,6.47
2018-05-08T03:45:41.520Z,6.40
2018-05-08T03:48:09.736Z,5.27
2018-05-08T03:50:37.174Z,5.37
2018-05-08T03:53:04.652Z,6.83
2018-05-08T03:55:32.085Z,5.20
2018-05-08T03:57:59.572Z,5.13
2018-05-08T04:00:39.832Z,5.80
2018-05-08T04:03:19.228Z,5.73
2018-05-08T04:05:55.600Z,6.17
2018-05-08T04:08:37.820Z,5.80
2018-05-08T04:11:05.252Z,5.63
2018-05-08T04:13:32.689Z,7.60
2018-05-08T04:16:00.884Z,5.93
2018-05-08T04:18:28.335Z,5.43
2018-05-08T04:20:57.406Z,5.10
2018-05-08T04:23:24.813Z,4.83
2018-05-08T04:25:52.272Z,5.90
2018-05-08T04:28:19.709Z,7.00
2018-05-08T04:30:47.133Z,5.83
2018-05-08T04:33:15.338Z,5.33
2018-05-08T04:35:42.813Z,5.70
2018-05-08T04:38:10.248Z,4.87
2018-05-08T04:40:37.679Z,5.40
2018-05-08T04:43:05.892Z,4.70
2018-05-08T04:45:33.353Z,5.70
2018-05-08T04:48:00.805Z,5.13
2018-05-08T04:50:28.240Z,4.80
2018-05-08T04:52:55.717Z,4.10
2018-05-08T04:55:23.140Z,4.10
2018-05-08T04:57:50.632Z,4.30
2018-05-08T05:00:18.085Z,4.33
2018-05-08T05:02:45.611Z,3.87
2018-05-08T05:05:12.969Z,3.70
2018-05-08T05:07:40.455Z,4.20
2018-05-08T05:10:08.207Z,3.50
2018-05-08T05:12:35.634Z,3.00
2018-05-08T05:15:03.081Z,3.37
2018-05-08T05:17:31.301Z,3.73
2018-05-08T05:19:58.728Z,2.83
2018-05-08T05:22:26.520Z,2.60
2018-05-08T05:24:53.957Z,3.43
2018-05-08T05:27:21.490Z,3.60
2018-05-08T05:29:48.888Z,3.70
2018-05-08T18:49:20.252Z,2.20
2018-05-08T18:51:47.665Z,2.17
2018-05-08T18:54:15.859Z,1.63
2018-05-08T18:56:43.281Z,2.00
2018-05-08T18:59:10.809Z,1.80
2018-05-08T19:01:38.233Z,2.20
2018-05-08T19:04:05.657Z,2.10
2018-05-08T19:06:33.909Z,1.70
2018-05-08T19:09:01.333Z,2.70
2018-05-08T19:11:34.501Z,1.43
2018-05-08T19:14:01.916Z,1.70
2018-05-08T19:16:30.157Z,2.60
2018-05-08T19:19:03.357Z,2.17
2018-05-08T19:21:30.791Z,1.40
2018-05-08T19:24:03.828Z,2.00
2018-05-08T19:26:31.378Z,2.00
2018-05-08T19:29:04.537Z,2.53
2018-05-08T19:31:31.992Z,2.43
2018-05-08T19:33:59.428Z,2.10
2018-05-08T19:36:32.657Z,2.23
2018-05-08T19:39:00.160Z,2.00
2018-05-08T19:41:27.528Z,1.70
2018-05-08T19:43:54.957Z,2.23
2018-05-08T19:46:23.180Z,2.07
2018-05-08T19:48:50.608Z,2.37
2018-05-08T19:51:18.195Z,2.23
2018-05-08T19:53:45.628Z,2.57
2018-05-08T19:56:13.120Z,2.60
2018-05-08T19:58:40.555Z,2.70
2018-05-08T20:01:07.979Z,2.37
2018-05-08T20:03:36.185Z,2.17
2018-05-08T20:06:03.646Z,2.40
2018-05-08T20:08:31.101Z,2.00
2018-05-08T20:10:59.394Z,2.80
2018-05-08T20:13:26.833Z,2.70
2018-05-08T20:15:54.253Z,2.30
2018-05-08T20:18:21.696Z,2.03
2018-05-08T20:20:50.064Z,2.47
2018-05-08T20:23:18.164Z,3.00
2018-05-08T20:25:45.616Z,3.10
2018-05-08T20:28:13.112Z,3.00
2018-05-08T20:30:40.654Z,2.80
2018-05-08T20:33:08.121Z,2.90
2018-05-08T20:35:35.572Z,1.80
2018-05-08T20:38:03.005Z,2.80
2018-05-08T20:40:30.429Z,2.50
2018-05-08T20:42:58.657Z,2.00
2018-05-08T20:45:26.117Z,2.83
2018-05-08T20:47:53.555Z,2.13
2018-05-08T20:50:20.978Z,2.30
2018-05-08T20:52:49.204Z,2.63
2018-05-08T20:55:16.626Z,2.10
2018-05-08T20:57:44.061Z,1.83
2018-05-08T21:00:12.280Z,2.03
2018-05-08T21:02:39.715Z,2.00
2018-05-08T21:05:07.136Z,1.50
2018-05-08T21:07:35.327Z,2.00
2018-05-08T21:10:03.523Z,2.40
2018-05-08T21:12:30.989Z,1.90
2018-05-08T21:14:58.472Z,1.93
2018-05-08T21:17:25.892Z,2.17
2018-05-08T21:19:53.317Z,1.90
2018-05-08T21:22:21.521Z,2.13
2018-05-08T21:24:48.988Z,2.07
2018-05-08T21:27:16.425Z,1.90
2018-05-08T21:29:49.433Z,2.23
2018-05-08T21:32:16.857Z,2.20
2018-05-08T21:34:44.291Z,2.60
2018-05-08T21:37:12.519Z,2.50
2018-05-08T21:39:40.044Z,2.20
2018-05-08T21:42:07.429Z,2.33
2018-05-08T21:44:34.871Z,1.97
2018-05-08T21:47:02.312Z,2.13
2018-05-08T21:49:30.498Z,2.40
2018-05-08T21:51:57.964Z,2.50
2018-05-08T21:54:25.423Z,2.37
2018-05-08T21:56:52.845Z,2.87
2018-05-08T21:59:20.606Z,2.83
2018-05-08T22:01:48.032Z,2.67
2018-05-08T22:04:15.466Z,1.80
2018-05-08T22:06:42.908Z,2.47
2018-05-08T22:09:10.348Z,2.30
2018-05-08T22:11:37.777Z,1.93
2018-05-08T22:14:05.275Z,2.40
2018-05-08T22:16:32.698Z,2.33
2018-05-08T22:19:00.124Z,2.40
2018-05-08T22:21:28.356Z,2.80
2018-05-08T22:23:55.820Z,2.90
2018-05-08T22:26:23.268Z,2.60
2018-05-08T22:28:50.712Z,2.60
2018-05-08T22:31:18.141Z,3.27
2018-05-08T22:33:45.643Z,3.00
2018-05-08T22:36:13.092Z,2.80
2018-05-08T22:38:40.548Z,2.40
2018-05-08T22:41:07.974Z,3.17
2018-05-08T22:43:35.442Z,3.37
2018-05-08T22:46:02.917Z,3.97
2018-05-08T22:48:30.357Z,2.93
2018-05-08T22:50:57.779Z,3.50
2018-05-08T22:53:25.989Z,3.30
2018-05-08T22:55:53.427Z,3.40
2018-05-08T22:58:20.925Z,3.33
2018-05-08T23:00:48.368Z,3.70
2018-05-08T23:03:15.825Z,3.30
2018-05-08T23:05:43.261Z,3.63
2018-05-08T23:08:10.684Z,3.30
2018-05-08T23:10:38.883Z,3.63
2018-05-08T23:13:06.309Z,3.10
2018-05-08T23:15:34.508Z,3.00
2018-05-08T23:18:01.986Z,3.53
2018-05-08T23:20:30.137Z,2.93
2018-05-08T23:22:57.621Z,4.00
2018-05-08T23:25:25.068Z,3.30
2018-05-08T23:27:52.497Z,2.83
2018-05-08T23:30:19.936Z,3.53
2018-05-08T23:32:48.152Z,4.17
2018-05-08T23:35:15.585Z,3.70
2018-05-08T23:37:43.013Z,3.17
2018-05-08T23:40:11.250Z,3.13
2018-05-08T23:42:38.673Z,4.37
2018-05-08T23:45:06.152Z,3.70
2018-05-08T23:47:33.604Z,3.93
2018-05-08T23:50:01.033Z,4.53
2018-05-08T23:52:28.536Z,4.13
2018-05-08T23:54:55.972Z,3.73
2018-05-08T23:57:23.432Z,4.77
2018-05-08T23:59:50.853Z,4.77
